This is the latest recevied weather packets stored in our database for station/object CE3TL-WX. If no packets are shown the sender has not sent any weather packets the latest 1 day(s).
| Time | Temp. | Humidity | Pressure | Rain* | Wind** | Luminosity | Snow |
|---|---|---|---|---|---|---|---|
| 1778082147 | 17.22° C | 51% | 1024 hPa | - | - | - | - |
| 1778076806 | 15.56° C | 57% | 1023.6 hPa | - | - | - | - |
| 1778076271 | 15° C | 56% | 1023.8 hPa | - | - | - | - |
| 1778075737 | 15° C | 57% | 1023.8 hPa | - | - | - | - |
| 1778075203 | 14.44° C | 58% | 1024.3 hPa | - | - | - | - |
| 1778071997 | 11.67° C | 79% | 1024.6 hPa | - | - | - | - |
| 1778071462 | 11.67° C | 80% | 1024.6 hPa | - | - | - | - |
| 1778070927 | 11.11° C | 80% | 1024.7 hPa | - | - | - | - |
| 1778070392 | 11.11° C | 81% | 1024.9 hPa | - | - | - | - |
| 1778069857 | 10.56° C | 80% | 1025 hPa | - | - | - | - |
| 1778069323 | 10.56° C | 80% | 1024.8 hPa | - | - | - | - |
| 1778068253 | 10.56° C | 80% | 1024.6 hPa | - | - | - | - |
| 1778067719 | 10.56° C | 79% | 1024.4 hPa | - | - | - | - |
| 1778066652 | 10.56° C | 79% | 1024.1 hPa | - | - | - | - |
| 1778064516 | 11.11° C | 79% | 1023.7 hPa | - | - | - | - |
| 1778063983 | 11.11° C | 78% | 1023.4 hPa | - | - | - | - |
| 1778063449 | 11.11° C | 78% | 1023.1 hPa | - | - | - | - |
| 1778061315 | 11.67° C | 78% | 1023 hPa | - | - | - | - |
| 1778060781 | 11.11° C | 78% | 1023 hPa | - | - | - | - |
| 1778059712 | 11.11° C | 78% | 1022.5 hPa | - | - | - | - |
| 1778059179 | 11.11° C | 78% | 1022.3 hPa | - | - | - | - |
| 1778058113 | 10.56° C | 79% | 1022.2 hPa | - | - | - | - |
| 1778055975 | 11.67° C | 77% | 1022.5 hPa | - | - | - | - |
| 1778053839 | 11.67° C | 75% | 1021.9 hPa | - | - | - | - |
| 1778053305 | 11.67° C | 75% | 1021.8 hPa | - | - | - | - |
* Rain since midnight (hover to see other rain measurements)
** Current wind speed in m/s (hover to see current wind gust speed)